This is the latest recevied weather packets stored in our database for station/object KF7SOJ. If no packets are shown the sender has not sent any weather packets the latest 1 day(s).
| Time | Temp. | Humidity | Pressure | Rain* | Wind** | Luminosity | Snow |
|---|---|---|---|---|---|---|---|
| 1778103924 | 18.33° C | 21% | 927.7 hPa | 0 mm | - | 732 W/m² | - |
| 1778103621 | 17.78° C | 22% | 927.7 hPa | 0 mm | - | 584 W/m² | - |
| 1778101801 | 17.78° C | 21% | 928.3 hPa | 0 mm | - | 594 W/m² | - |
| 1778101497 | 17.78° C | 20% | 928.4 hPa | 0 mm | - | 698 W/m² | - |
| 1778100890 | 16.67° C | 22% | 928.6 hPa | 0 mm | - | 681 W/m² | - |
| 1778098769 | 17.22° C | 20% | 929.3 hPa | 0 mm | - | 938 W/m² | - |
| 1778098163 | 16.67° C | 20% | 929.4 hPa | 0 mm | - | 958 W/m² | - |
| 1778097556 | 15.56° C | 23% | 929.6 hPa | 0 mm | - | 955 W/m² | - |
| 1778097253 | 15° C | 23% | 929.7 hPa | 0 mm | - | 712 W/m² | - |
| 1778095131 | 13.89° C | 23% | 930.5 hPa | 0 mm | - | 1045 W/m² | - |
| 1778094827 | 13.89° C | 21% | 930.6 hPa | 0 mm | - | 1003 W/m² | - |
| 1778091191 | 12.22° C | 25% | 931.9 hPa | 0 mm | - | 926 W/m² | - |
| 1778090888 | 12.22° C | 26% | 932 hPa | 0 mm | - | 905 W/m² | - |
| 1778090280 | 11.67° C | 26% | 932.3 hPa | 0 mm | - | 731 W/m² | - |
| 1778088766 | 11.67° C | 25% | 932.6 hPa | 0 mm | - | 888 W/m² | - |
| 1778087554 | 10.56° C | 31% | 932.9 hPa | 0 mm | - | 841 W/m² | - |
| 1778086343 | 10° C | 31% | 933.2 hPa | 0 mm | - | 800 W/m² | - |
| 1778085434 | 9.44° C | 32% | 933.5 hPa | 0 mm | - | 764 W/m² | - |
| 1778083311 | 8.33° C | 40% | 933.9 hPa | 0 mm | - | 654 W/m² | - |
| 1778081265 | 6.67° C | 46% | 934.1 hPa | 0 mm | - | 549 W/m² | - |
| 1778080054 | 6.67° C | 49% | 934.4 hPa | 0 mm | - | 490 W/m² | - |
| 1778077028 | 3.33° C | 52% | 934.9 hPa | 0 mm | - | 306 W/m² | - |
| 1778076726 | 3.89° C | 50% | 935 hPa | 0 mm | - | 283 W/m² | - |
| 1778076120 | 3.33° C | 51% | 935 hPa | 0 mm | - | 250 W/m² | - |
| 1778075817 | 2.78° C | 51% | 935.1 hPa | 0 mm | - | 232 W/m² | - |
* Rain latest hour (hover to see other rain measurements)
** Current wind speed in m/s (hover to see current wind gust speed)